Time;durP1;ratioP1;P1;durP2;ratioP2;P2;SDS_P1;SDS_P2;PMS_P1;PMS_P2;Temp;Humidity;BMP_temperature;BMP_pressure;BME280_temperature;BME280_humidity;BME280_pressure;Samples;Min_cycle;Max_cycle;Signal;HPM_P1;HPM_P2
2023/09/28 00:01:31;;;;;;;;;;;20.90;55.70;;;;;;1569596;74;1676;-70
2023/09/28 00:03:33;;;;;;;;;;;20.90;55.70;;;;;;1573642;74;1928;-69
2023/09/28 00:05:35;;;;;;;;;;;20.80;55.50;;;;;;1565835;74;730;-69
2023/09/28 00:07:37;;;;;;;;;;;20.90;55.60;;;;;;1565342;74;736;-69
2023/09/28 00:09:38;;;;;;;;;;;20.90;55.60;;;;;;1561134;74;1177;-69
2023/09/28 00:11:41;;;;;;;;;;;20.90;55.50;;;;;;1566703;74;733;-68
2023/09/28 00:13:42;;;;;;;;;;;20.90;55.50;;;;;;1565888;74;872;-69
2023/09/28 00:15:46;;;;;;;;;;;20.80;55.40;;;;;;1557387;74;735;-69
2023/09/28 00:17:48;;;;;;;;;;;20.80;55.40;;;;;;1565955;74;777;-70
2023/09/28 00:19:50;;;;;;;;;;;20.90;55.50;;;;;;1565702;74;1143;-69
2023/09/28 00:21:52;;;;;;;;;;;20.80;55.40;;;;;;1562701;74;705;-70
2023/09/28 00:23:54;;;;;;;;;;;20.80;55.40;;;;;;1567594;74;1937;-70
2023/09/28 00:25:56;;;;;;;;;;;20.80;55.40;;;;;;1567473;74;742;-69
2023/09/28 00:27:57;;;;;;;;;;;20.80;55.30;;;;;;1561495;74;724;-69
2023/09/28 00:29:59;;;;;;;;;;;20.80;55.30;;;;;;1560577;74;1126;-69
2023/09/28 00:32:01;;;;;;;;;;;20.80;55.30;;;;;;1562910;74;711;-70
2023/09/28 00:34:03;;;;;;;;;;;20.80;55.30;;;;;;1559746;74;702;-68
2023/09/28 00:36:05;;;;;;;;;;;20.80;55.20;;;;;;1565863;74;707;-69
2023/09/28 00:38:07;;;;;;;;;;;20.80;55.30;;;;;;1564744;74;737;-70
2023/09/28 00:40:20;;;;;;;;;;;20.80;55.20;;;;;;1562458;74;1171;-69
2023/09/28 00:42:22;;;;;;;;;;;20.90;55.30;;;;;;1565643;74;597;-69
2023/09/28 00:44:24;;;;;;;;;;;20.80;55.20;;;;;;1563524;74;1931;-68
2023/09/28 00:46:26;;;;;;;;;;;20.80;55.20;;;;;;1567629;74;728;-69
2023/09/28 00:48:28;;;;;;;;;;;20.90;55.30;;;;;;1563413;74;1168;-69
2023/09/28 00:50:34;;;;;;;;;;;20.90;55.20;;;;;;1565267;74;705;-69
2023/09/28 00:52:33;;;;;;;;;;;20.80;55.10;;;;;;1561914;74;1472;-70
2023/09/28 00:54:35;;;;;;;;;;;20.90;55.20;;;;;;1558492;74;648;-70
2023/09/28 00:56:38;;;;;;;;;;;20.80;55.10;;;;;;1564125;74;1576;-69
2023/09/28 00:58:40;;;;;;;;;;;20.80;55.00;;;;;;1567270;74;1129;-69
2023/09/28 01:00:41;;;;;;;;;;;20.80;55.10;;;;;;1565928;74;640;-70
2023/09/28 01:02:43;;;;;;;;;;;20.80;55.00;;;;;;1563030;74;739;-69
2023/09/28 01:04:45;;;;;;;;;;;20.80;55.00;;;;;;1555490;74;1912;-69
2023/09/28 01:06:48;;;;;;;;;;;20.90;55.10;;;;;;1564112;74;758;-69
2023/09/28 01:08:50;;;;;;;;;;;20.80;55.00;;;;;;1564792;74;1367;-69
2023/09/28 01:10:51;;;;;;;;;;;20.70;54.90;;;;;;1570426;74;732;-69
2023/09/28 01:12:55;;;;;;;;;;;20.80;54.90;;;;;;1566110;74;726;-70
2023/09/28 01:14:57;;;;;;;;;;;20.80;54.90;;;;;;1563183;74;722;-69
2023/09/28 01:16:59;;;;;;;;;;;20.80;54.80;;;;;;1562793;74;721;-69
2023/09/28 01:19:00;;;;;;;;;;;20.80;54.80;;;;;;1561061;74;1161;-69
2023/09/28 01:21:02;;;;;;;;;;;20.80;54.80;;;;;;1564598;74;696;-69
2023/09/28 01:23:04;;;;;;;;;;;20.80;54.70;;;;;;1560271;74;715;-69
2023/09/28 01:25:08;;;;;;;;;;;20.80;54.70;;;;;;1567269;74;1929;-70
2023/09/28 01:27:10;;;;;;;;;;;20.80;54.70;;;;;;1562347;74;696;-70
2023/09/28 01:29:12;;;;;;;;;;;20.80;54.60;;;;;;1562175;74;1219;-69
2023/09/28 01:31:14;;;;;;;;;;;20.80;54.60;;;;;;1563597;74;622;-70
2023/09/28 01:33:16;;;;;;;;;;;20.70;54.60;;;;;;1560509;74;742;-69
2023/09/28 01:35:18;;;;;;;;;;;20.80;54.60;;;;;;1567268;74;733;-69
2023/09/28 01:37:20;;;;;;;;;;;20.70;54.50;;;;;;1565865;74;720;-69
2023/09/28 01:39:22;;;;;;;;;;;20.70;54.40;;;;;;1566918;74;1129;-69
2023/09/28 01:41:24;;;;;;;;;;;20.80;54.40;;;;;;1562847;74;617;-69
2023/09/28 01:43:25;;;;;;;;;;;20.70;54.30;;;;;;1555733;74;744;-69
2023/09/28 01:45:27;;;;;;;;;;;20.70;54.30;;;;;;1566394;75;1943;-69
2023/09/28 01:47:29;;;;;;;;;;;20.70;54.30;;;;;;1560037;74;793;-69
2023/09/28 01:49:31;;;;;;;;;;;20.70;54.30;;;;;;1566795;74;1141;-69
2023/09/28 01:51:33;;;;;;;;;;;20.70;54.30;;;;;;1564573;74;1552;-69
2023/09/28 01:53:35;;;;;;;;;;;20.80;54.30;;;;;;1562997;74;712;-69
2023/09/28 01:55:37;;;;;;;;;;;20.70;54.30;;;;;;1564517;74;730;-66
2023/09/28 01:57:39;;;;;;;;;;;20.80;54.30;;;;;;1563996;74;708;-69
2023/09/28 01:59:41;;;;;;;;;;;20.70;54.20;;;;;;1557405;74;1146;-69
2023/09/28 02:01:43;;;;;;;;;;;20.80;54.20;;;;;;1567078;74;730;-69
2023/09/28 02:03:45;;;;;;;;;;;20.70;54.20;;;;;;1562368;74;755;-69
2023/09/28 02:05:47;;;;;;;;;;;20.70;54.20;;;;;;1565501;74;1922;-69
2023/09/28 02:07:49;;;;;;;;;;;20.80;54.20;;;;;;1529650;76;1200;-70
2023/09/28 02:09:51;;;;;;;;;;;20.70;54.20;;;;;;1565196;74;1176;-69
2023/09/28 02:11:53;;;;;;;;;;;20.80;54.20;;;;;;1570787;74;603;-69
2023/09/28 02:13:55;;;;;;;;;;;20.80;54.20;;;;;;1563003;74;765;-70
2023/09/28 02:15:57;;;;;;;;;;;20.70;54.10;;;;;;1566351;74;704;-69
2023/09/28 02:17:58;;;;;;;;;;;20.70;54.10;;;;;;1560695;74;689;-69
2023/09/28 02:20:00;;;;;;;;;;;20.70;54.00;;;;;;1564097;74;1125;-69
2023/09/28 02:22:03;;;;;;;;;;;20.70;54.10;;;;;;1559728;74;731;-69
2023/09/28 02:24:07;;;;;;;;;;;20.70;53.90;;;;;;1563276;74;676;-69
2023/09/28 02:26:09;;;;;;;;;;;20.70;54.00;;;;;;1562751;74;722;-67
2023/09/28 02:28:11;;;;;;;;;;;20.80;54.00;;;;;;1566456;74;724;-69
2023/09/28 02:30:15;;;;;;;;;;;20.70;54.00;;;;;;1563193;74;1152;-68
2023/09/28 02:32:17;;;;;;;;;;;20.70;54.00;;;;;;1562397;74;645;-69
2023/09/28 02:34:19;;;;;;;;;;;20.70;53.90;;;;;;1565260;74;609;-69
2023/09/28 02:36:21;;;;;;;;;;;20.70;53.90;;;;;;1564968;74;718;-69
2023/09/28 02:38:23;;;;;;;;;;;20.70;53.90;;;;;;1565400;74;1160;-67
2023/09/28 02:40:25;;;;;;;;;;;20.70;53.90;;;;;;1565832;74;726;-69
2023/09/28 02:42:27;;;;;;;;;;;20.70;53.90;;;;;;1562980;74;673;-69
2023/09/28 02:44:28;;;;;;;;;;;20.70;53.90;;;;;;1566188;74;1948;-69
2023/09/28 02:46:31;;;;;;;;;;;20.70;53.80;;;;;;1566833;74;634;-69
2023/09/28 02:48:33;;;;;;;;;;;20.70;53.80;;;;;;1567359;74;1573;-67
2023/09/28 02:50:35;;;;;;;;;;;20.70;53.80;;;;;;1564400;74;825;-69
2023/09/28 02:52:41;;;;;;;;;;;20.70;53.60;;;;;;1559535;74;686;-69
2023/09/28 02:54:43;;;;;;;;;;;20.70;53.70;;;;;;1562243;74;710;-69
2023/09/28 02:56:45;;;;;;;;;;;20.70;53.60;;;;;;1564133;74;736;-69
2023/09/28 02:58:47;;;;;;;;;;;20.70;53.60;;;;;;1567252;74;1104;-69
2023/09/28 03:00:49;;;;;;;;;;;20.70;53.60;;;;;;1564761;74;739;-69
2023/09/28 03:02:56;;;;;;;;;;;20.70;53.50;;;;;;1567032;74;750;-69
2023/09/28 03:04:58;;;;;;;;;;;20.70;53.50;;;;;;1563714;74;1919;-69
2023/09/28 03:07:00;;;;;;;;;;;20.70;53.50;;;;;;1565098;74;655;-69
2023/09/28 03:09:02;;;;;;;;;;;20.70;53.40;;;;;;1561444;74;1146;-68
2023/09/28 03:11:04;;;;;;;;;;;20.70;53.40;;;;;;1564552;74;713;-69
2023/09/28 03:13:06;;;;;;;;;;;20.70;53.40;;;;;;1562892;74;744;-69
2023/09/28 03:15:10;;;;;;;;;;;20.70;53.30;;;;;;1561723;74;727;-69
2023/09/28 03:17:12;;;;;;;;;;;20.70;53.40;;;;;;1561954;74;1652;-69
2023/09/28 03:19:13;;;;;;;;;;;20.70;53.30;;;;;;1562375;74;1145;-69
2023/09/28 03:21:15;;;;;;;;;;;20.60;53.10;;;;;;1565182;74;724;-70
2023/09/28 03:23:17;;;;;;;;;;;20.70;53.10;;;;;;1561382;74;687;-69
2023/09/28 03:25:21;;;;;;;;;;;20.70;53.10;;;;;;1568764;74;1910;-67
2023/09/28 03:27:23;;;;;;;;;;;20.70;53.20;;;;;;1559027;74;631;-69
2023/09/28 03:29:25;;;;;;;;;;;20.70;53.10;;;;;;1562580;74;1118;-67
2023/09/28 03:31:27;;;;;;;;;;;20.60;52.90;;;;;;1561174;74;723;-69
2023/09/28 03:33:29;;;;;;;;;;;20.70;53.00;;;;;;1560428;74;602;-69
2023/09/28 03:35:31;;;;;;;;;;;20.60;52.90;;;;;;1559009;74;737;-69
2023/09/28 03:37:32;;;;;;;;;;;20.70;53.00;;;;;;1566736;74;716;-70
2023/09/28 03:39:34;;;;;;;;;;;20.70;53.00;;;;;;1564691;74;1093;-70
2023/09/28 03:41:37;;;;;;;;;;;20.70;52.90;;;;;;1564622;74;731;-69
2023/09/28 03:43:39;;;;;;;;;;;20.70;52.90;;;;;;1564552;74;787;-70
2023/09/28 03:45:41;;;;;;;;;;;20.70;52.80;;;;;;1567220;74;1950;-69
2023/09/28 03:47:44;;;;;;;;;;;20.70;52.80;;;;;;1566567;74;721;-69
2023/09/28 03:49:45;;;;;;;;;;;20.70;52.80;;;;;;1560661;74;1151;-70
2023/09/28 03:51:47;;;;;;;;;;;20.60;52.60;;;;;;1560971;74;729;-68
2023/09/28 03:53:49;;;;;;;;;;;20.70;52.60;;;;;;1564709;74;719;-70
2023/09/28 03:55:51;;;;;;;;;;;20.60;52.60;;;;;;1563055;74;737;-69
2023/09/28 03:57:53;;;;;;;;;;;20.70;52.60;;;;;;1560882;74;658;-69
2023/09/28 03:59:55;;;;;;;;;;;20.70;52.60;;;;;;1563194;74;1114;-70
2023/09/28 04:01:57;;;;;;;;;;;20.60;52.40;;;;;;1561104;74;719;-69
2023/09/28 04:03:58;;;;;;;;;;;20.60;52.40;;;;;;1560561;74;731;-69
2023/09/28 04:06:00;;;;;;;;;;;20.60;52.40;;;;;;1560052;74;1978;-69
2023/09/28 04:08:02;;;;;;;;;;;20.60;52.30;;;;;;1563107;74;727;-70
2023/09/28 04:10:04;;;;;;;;;;;20.70;52.50;;;;;;1555817;74;1138;-69
2023/09/28 04:12:06;;;;;;;;;;;20.60;52.30;;;;;;1565528;74;714;-68
2023/09/28 04:14:08;;;;;;;;;;;20.60;52.20;;;;;;1566302;74;711;-69
2023/09/28 04:16:10;;;;;;;;;;;20.70;52.40;;;;;;1566667;74;710;-69
2023/09/28 04:18:12;;;;;;;;;;;20.60;52.30;;;;;;1567377;74;723;-69
2023/09/28 04:20:14;;;;;;;;;;;20.60;52.20;;;;;;1567184;74;1143;-69
2023/09/28 04:22:16;;;;;;;;;;;20.60;52.20;;;;;;1566098;74;700;-69
2023/09/28 04:24:18;;;;;;;;;;;20.60;52.10;;;;;;1566064;74;715;-69
2023/09/28 04:26:20;;;;;;;;;;;20.60;52.00;;;;;;1560770;74;1950;-70
2023/09/28 04:28:23;;;;;;;;;;;20.60;52.10;;;;;;1566750;74;1149;-69
2023/09/28 04:30:24;;;;;;;;;;;20.60;52.00;;;;;;1562921;74;709;-69
2023/09/28 04:32:27;;;;;;;;;;;20.60;52.00;;;;;;1566701;74;712;-69
2023/09/28 04:34:33;;;;;;;;;;;20.60;52.00;;;;;;1562983;74;747;-68
2023/09/28 04:36:32;;;;;;;;;;;20.60;52.00;;;;;;1561975;74;1623;-68
2023/09/28 04:38:34;;;;;;;;;;;20.60;51.80;;;;;;1565799;74;1143;-69
2023/09/28 04:40:37;;;;;;;;;;;20.60;51.80;;;;;;1559704;74;1324;-68
2023/09/28 04:42:39;;;;;;;;;;;20.60;51.80;;;;;;1562613;74;716;-69
2023/09/28 04:44:43;;;;;;;;;;;20.60;51.90;;;;;;1533218;76;732;-68
2023/09/28 04:46:44;;;;;;;;;;;20.50;51.90;;;;;;1529095;76;1988;-69
2023/09/28 04:48:46;;;;;;;;;;;20.60;51.80;;;;;;1538620;76;1155;-69
2023/09/28 04:50:48;;;;;;;;;;;20.60;51.80;;;;;;1499082;77;732;-69
2023/09/28 04:52:50;;;;;;;;;;;20.60;51.80;;;;;;1511810;77;569;-69
2023/09/28 04:54:52;;;;;;;;;;;20.60;51.80;;;;;;1514601;77;743;-69
2023/09/28 04:56:55;;;;;;;;;;;20.60;51.70;;;;;;1564718;74;612;-69
2023/09/28 04:58:57;;;;;;;;;;;20.60;51.80;;;;;;1567023;74;1163;-69
2023/09/28 05:00:59;;;;;;;;;;;20.60;51.80;;;;;;1563530;74;711;-69
2023/09/28 05:03:04;;;;;;;;;;;20.60;51.80;;;;;;1566181;74;721;-69
2023/09/28 05:05:06;;;;;;;;;;;20.60;51.70;;;;;;1562326;74;2043;-68
2023/09/28 05:07:08;;;;;;;;;;;20.60;51.80;;;;;;1563665;74;739;-69
2023/09/28 05:09:10;;;;;;;;;;;20.60;51.80;;;;;;1564240;74;1183;-68
2023/09/28 05:11:12;;;;;;;;;;;20.60;51.70;;;;;;1564228;74;618;-68
2023/09/28 05:13:14;;;;;;;;;;;20.60;51.70;;;;;;1562729;74;727;-69
2023/09/28 05:15:15;;;;;;;;;;;20.60;51.70;;;;;;1562945;74;736;-68
2023/09/28 05:17:17;;;;;;;;;;;20.60;51.70;;;;;;1561883;74;688;-69
2023/09/28 05:19:19;;;;;;;;;;;20.60;51.70;;;;;;1567870;74;1138;-70
2023/09/28 05:21:21;;;;;;;;;;;20.60;51.70;;;;;;1559846;74;730;-69
2023/09/28 05:23:23;;;;;;;;;;;20.60;51.80;;;;;;1561592;74;742;-69
2023/09/28 05:25:25;;;;;;;;;;;20.60;51.80;;;;;;1559447;74;1936;-67
2023/09/28 05:27:27;;;;;;;;;;;20.60;51.80;;;;;;1566966;74;601;-69
2023/09/28 05:29:30;;;;;;;;;;;20.50;51.80;;;;;;1561496;74;1125;-67
2023/09/28 05:31:32;;;;;;;;;;;20.60;51.80;;;;;;1563725;74;759;-69
2023/09/28 05:33:33;;;;;;;;;;;20.60;51.80;;;;;;1564254;74;711;-69
2023/09/28 05:35:35;;;;;;;;;;;20.60;51.90;;;;;;1562995;74;933;-69
2023/09/28 05:37:37;;;;;;;;;;;20.60;51.90;;;;;;1564861;74;1424;-69
2023/09/28 05:39:39;;;;;;;;;;;20.50;52.00;;;;;;1558055;74;1121;-66
2023/09/28 05:41:41;;;;;;;;;;;20.60;52.00;;;;;;1566202;74;641;-69
2023/09/28 05:43:43;;;;;;;;;;;20.60;52.00;;;;;;1565718;74;841;-67
2023/09/28 05:45:45;;;;;;;;;;;20.60;52.10;;;;;;1568440;74;1940;-70
2023/09/28 05:47:47;;;;;;;;;;;20.60;52.10;;;;;;1562987;74;753;-68
2023/09/28 05:49:51;;;;;;;;;;;20.60;52.10;;;;;;1567373;74;1112;-69
2023/09/28 05:51:52;;;;;;;;;;;20.60;52.10;;;;;;1565820;74;1645;-69
2023/09/28 05:53:54;;;;;;;;;;;20.60;52.20;;;;;;1566861;74;721;-68
2023/09/28 05:55:56;;;;;;;;;;;20.60;52.20;;;;;;1559413;74;738;-70
2023/09/28 05:57:58;;;;;;;;;;;20.60;52.20;;;;;;1560256;74;729;-69
2023/09/28 06:00:00;;;;;;;;;;;20.60;52.20;;;;;;1563928;74;1125;-69
2023/09/28 06:02:02;;;;;;;;;;;20.60;52.20;;;;;;1567213;74;721;-69
2023/09/28 06:04:04;;;;;;;;;;;20.60;52.30;;;;;;1566775;74;763;-69
2023/09/28 06:06:08;;;;;;;;;;;20.60;52.30;;;;;;1569161;74;1961;-67
2023/09/28 06:08:09;;;;;;;;;;;20.60;52.30;;;;;;1563151;74;1624;-69
2023/09/28 06:10:13;;;;;;;;;;;20.70;52.50;;;;;;1562695;74;1109;-67
2023/09/28 06:12:14;;;;;;;;;;;20.60;52.30;;;;;;1562914;74;742;-69
2023/09/28 06:14:16;;;;;;;;;;;20.60;52.40;;;;;;1558899;74;716;-71
2023/09/28 06:16:18;;;;;;;;;;;20.60;52.50;;;;;;1565684;74;770;-68
2023/09/28 06:18:20;;;;;;;;;;;20.60;52.50;;;;;;1561371;74;1095;-69
2023/09/28 06:20:22;;;;;;;;;;;20.60;52.60;;;;;;1566670;74;840;-68
2023/09/28 06:22:24;;;;;;;;;;;20.70;52.60;;;;;;1565866;74;694;-68
2023/09/28 06:24:26;;;;;;;;;;;20.60;52.60;;;;;;1567085;74;632;-69
2023/09/28 06:26:28;;;;;;;;;;;20.70;52.70;;;;;;1565849;74;1935;-68
2023/09/28 06:28:30;;;;;;;;;;;20.60;52.70;;;;;;1560893;74;1140;-69
2023/09/28 06:30:32;;;;;;;;;;;20.60;52.70;;;;;;1564664;74;809;-69
2023/09/28 06:32:34;;;;;;;;;;;20.60;52.80;;;;;;1560418;74;1554;-68
2023/09/28 06:34:36;;;;;;;;;;;20.60;52.80;;;;;;1568288;74;709;-69
2023/09/28 06:36:38;;;;;;;;;;;20.60;52.80;;;;;;1568599;74;695;-68
2023/09/28 06:38:40;;;;;;;;;;;20.60;52.90;;;;;;1565844;74;1148;-68
2023/09/28 06:40:43;;;;;;;;;;;20.60;52.90;;;;;;1566353;74;739;-69
2023/09/28 06:42:45;;;;;;;;;;;20.60;52.90;;;;;;1562808;74;813;-69
2023/09/28 06:44:47;;;;;;;;;;;20.60;53.10;;;;;;1562540;74;706;-69
2023/09/28 06:46:49;;;;;;;;;;;20.60;53.10;;;;;;1565916;74;1934;-69
2023/09/28 06:48:51;;;;;;;;;;;20.60;53.30;;;;;;1565159;74;1163;-69
2023/09/28 06:50:56;;;;;;;;;;;20.60;53.20;;;;;;1562984;74;721;-70
2023/09/28 06:52:58;;;;;;;;;;;20.60;53.30;;;;;;1561648;74;756;-68
2023/09/28 06:55:00;;;;;;;;;;;20.60;53.30;;;;;;1564269;74;684;-69
2023/09/28 06:57:03;;;;;;;;;;;20.70;53.50;;;;;;1563808;74;740;-70
2023/09/28 06:59:05;;;;;;;;;;;20.60;53.50;;;;;;1565356;74;1138;-69
2023/09/28 07:01:08;;;;;;;;;;;20.70;53.60;;;;;;1569603;74;621;-69
2023/09/28 07:03:09;;;;;;;;;;;20.70;53.70;;;;;;1558296;74;741;-68
2023/09/28 07:05:13;;;;;;;;;;;20.60;53.70;;;;;;1567788;74;718;-69
2023/09/28 07:07:17;;;;;;;;;;;20.60;53.80;;;;;;1566203;74;1922;-70
2023/09/28 07:09:18;;;;;;;;;;;20.60;53.60;;;;;;1564567;74;1718;-69
2023/09/28 07:11:20;;;;;;;;;;;20.60;53.70;;;;;;1565227;74;698;-69
2023/09/28 07:13:22;;;;;;;;;;;20.60;53.90;;;;;;1562662;74;745;-70
2023/09/28 07:15:24;;;;;;;;;;;20.70;54.10;;;;;;1561079;74;601;-69
2023/09/28 07:17:26;;;;;;;;;;;20.60;54.10;;;;;;1570556;74;636;-69
2023/09/28 07:19:28;;;;;;;;;;;20.70;54.60;;;;;;1561594;74;1141;-69
2023/09/28 07:21:29;;;;;;;;;;;20.70;54.40;;;;;;1565516;74;729;-68
2023/09/28 07:23:31;;;;;;;;;;;20.60;54.00;;;;;;1565139;74;722;-68
2023/09/28 07:25:33;;;;;;;;;;;20.60;54.10;;;;;;1563411;74;754;-69
2023/09/28 07:27:36;;;;;;;;;;;20.70;54.40;;;;;;1570651;74;1948;-69
2023/09/28 07:29:38;;;;;;;;;;;20.70;54.40;;;;;;1556851;74;1456;-68
2023/09/28 07:31:40;;;;;;;;;;;20.60;54.20;;;;;;1563001;74;741;-68
2023/09/28 07:33:43;;;;;;;;;;;20.80;54.40;;;;;;1563025;74;728;-69
2023/09/28 07:35:45;;;;;;;;;;;20.70;54.40;;;;;;1563544;74;827;-69
2023/09/28 07:37:47;;;;;;;;;;;20.70;54.50;;;;;;1565852;74;726;-69
2023/09/28 07:39:49;;;;;;;;;;;20.70;54.60;;;;;;1564794;74;1134;-68
2023/09/28 07:41:51;;;;;;;;;;;20.70;54.50;;;;;;1564659;74;727;-68
2023/09/28 07:43:53;;;;;;;;;;;20.70;54.70;;;;;;1566284;74;724;-69
2023/09/28 07:45:55;;;;;;;;;;;20.80;54.70;;;;;;1564405;74;708;-69
2023/09/28 07:47:57;;;;;;;;;;;20.80;54.80;;;;;;1561443;74;1911;-67
2023/09/28 07:49:59;;;;;;;;;;;20.80;54.90;;;;;;1559819;74;1236;-69
2023/09/28 07:52:02;;;;;;;;;;;20.80;55.00;;;;;;1561309;74;680;-69
2023/09/28 07:54:04;;;;;;;;;;;20.70;54.80;;;;;;1560867;74;718;-69
2023/09/28 07:56:06;;;;;;;;;;;20.70;54.80;;;;;;1564009;74;746;-69
2023/09/28 07:58:08;;;;;;;;;;;20.80;55.00;;;;;;1567407;74;630;-69
2023/09/28 08:00:11;;;;;;;;;;;20.90;55.20;;;;;;1562921;74;1123;-69
2023/09/28 08:02:14;;;;;;;;;;;20.80;55.10;;;;;;1558200;74;737;-69
2023/09/28 08:04:16;;;;;;;;;;;20.80;55.10;;;;;;1561714;74;708;-69
2023/09/28 08:06:18;;;;;;;;;;;20.80;55.10;;;;;;1560493;74;1934;-69
2023/09/28 08:08:19;;;;;;;;;;;20.80;55.20;;;;;;1571334;74;1144;-69
2023/09/28 08:10:22;;;;;;;;;;;20.80;55.30;;;;;;1561865;74;709;-69
2023/09/28 08:12:24;;;;;;;;;;;20.80;55.40;;;;;;1561302;74;778;-69
2023/09/28 08:14:27;;;;;;;;;;;20.80;55.50;;;;;;1563248;74;733;-68
2023/09/28 08:16:29;;;;;;;;;;;20.80;55.50;;;;;;1560056;74;744;-68
2023/09/28 08:18:30;;;;;;;;;;;20.80;55.50;;;;;;1569006;74;1173;-69
2023/09/28 08:20:33;;;;;;;;;;;20.90;55.70;;;;;;1558411;74;724;-69
2023/09/28 08:22:35;;;;;;;;;;;20.80;55.60;;;;;;1566612;74;778;-69
2023/09/28 08:24:37;;;;;;;;;;;20.90;55.70;;;;;;1565067;74;750;-69
2023/09/28 08:26:39;;;;;;;;;;;20.80;55.50;;;;;;1566454;74;1942;-69
2023/09/28 08:28:41;;;;;;;;;;;20.90;55.70;;;;;;1564303;74;1122;-70
2023/09/28 08:30:43;;;;;;;;;;;20.90;55.60;;;;;;1566205;74;629;-69
2023/09/28 08:32:45;;;;;;;;;;;20.90;55.60;;;;;;1566041;74;753;-70
2023/09/28 08:34:46;;;;;;;;;;;20.90;55.70;;;;;;1564992;74;716;-69
2023/09/28 08:36:48;;;;;;;;;;;20.80;55.50;;;;;;1563697;74;728;-67
2023/09/28 08:38:51;;;;;;;;;;;20.90;55.70;;;;;;1566058;74;1115;-69
2023/09/28 08:40:54;;;;;;;;;;;20.90;55.60;;;;;;1562427;74;841;-69
2023/09/28 08:42:57;;;;;;;;;;;20.90;55.70;;;;;;1558945;74;720;-69
2023/09/28 08:45:00;;;;;;;;;;;20.90;55.70;;;;;;1559240;74;720;-69
2023/09/28 08:47:02;;;;;;;;;;;20.90;55.80;;;;;;1563289;74;1910;-69
2023/09/28 08:49:05;;;;;;;;;;;20.90;55.70;;;;;;1562734;74;1123;-69
2023/09/28 08:51:09;;;;;;;;;;;20.90;55.50;;;;;;1559844;74;734;-66
2023/09/28 08:53:11;;;;;;;;;;;20.90;55.70;;;;;;1564787;74;715;-66
2023/09/28 08:55:13;;;;;;;;;;;20.90;55.60;;;;;;1559288;74;751;-68
2023/09/28 08:57:15;;;;;;;;;;;20.90;55.50;;;;;;1566551;74;634;-68
2023/09/28 08:59:18;;;;;;;;;;;20.90;55.60;;;;;;1564288;74;1153;-68
2023/09/28 09:01:20;;;;;;;;;;;20.90;55.50;;;;;;1567296;74;625;-68
2023/09/28 09:03:21;;;;;;;;;;;20.90;55.50;;;;;;1561916;74;713;-69
2023/09/28 09:05:28;;;;;;;;;;;20.90;55.40;;;;;;1555223;74;707;-68
2023/09/28 09:07:28;;;;;;;;;;;20.90;55.40;;;;;;1563960;74;1930;-70
2023/09/28 09:09:30;;;;;;;;;;;20.90;55.30;;;;;;1566408;74;1145;-69
2023/09/28 09:11:34;;;;;;;;;;;20.90;55.30;;;;;;1566069;74;726;-69
2023/09/28 09:13:35;;;;;;;;;;;20.90;55.30;;;;;;1557099;74;1729;-70
2023/09/28 09:15:40;;;;;;;;;;;20.90;55.30;;;;;;1565193;74;735;-68
2023/09/28 09:17:42;;;;;;;;;;;20.90;55.30;;;;;;1562585;74;1150;-69
2023/09/28 09:19:43;;;;;;;;;;;20.90;55.20;;;;;;1562984;74;1182;-68
2023/09/28 09:21:45;;;;;;;;;;;20.90;55.20;;;;;;1564523;74;1498;-69
2023/09/28 09:24:03;;;;;;;;;;;20.90;55.20;;;;;;1564220;74;723;-70
2023/09/28 09:26:04;;;;;;;;;;;20.90;55.20;;;;;;1564273;74;728;-70
2023/09/28 09:28:06;;;;;;;;;;;20.90;55.20;;;;;;1571711;74;1909;-69
2023/09/28 09:30:08;;;;;;;;;;;20.90;55.20;;;;;;1563767;74;1116;-69
2023/09/28 09:32:10;;;;;;;;;;;20.90;55.10;;;;;;1564447;74;778;-69
2023/09/28 09:34:19;;;;;;;;;;;20.90;55.00;;;;;;1533320;76;1253;-69
2023/09/28 09:36:21;;;;;;;;;;;21.00;55.00;;;;;;1562037;74;638;-69
2023/09/28 09:38:25;;;;;;;;;;;20.90;54.90;;;;;;1566820;74;1100;-69
2023/09/28 09:40:26;;;;;;;;;;;20.90;54.90;;;;;;1560084;74;1524;-69
2023/09/28 09:42:29;;;;;;;;;;;21.00;54.90;;;;;;1567052;74;734;-69
2023/09/28 09:44:31;;;;;;;;;;;20.90;54.90;;;;;;1561296;74;705;-69
2023/09/28 09:46:34;;;;;;;;;;;20.90;54.80;;;;;;1563682;74;733;-68
2023/09/28 09:48:38;;;;;;;;;;;20.90;54.90;;;;;;1564860;74;1953;-69
2023/09/28 09:50:40;;;;;;;;;;;20.90;54.80;;;;;;1561127;74;1553;-69
2023/09/28 09:52:45;;;;;;;;;;;20.90;54.80;;;;;;1565415;74;594;-70
2023/09/28 09:54:47;;;;;;;;;;;21.00;54.80;;;;;;1567291;74;780;-70
2023/09/28 09:56:49;;;;;;;;;;;20.90;54.80;;;;;;1561932;74;725;-69
2023/09/28 09:58:51;;;;;;;;;;;21.00;54.70;;;;;;1567241;74;1181;-69
2023/09/28 10:00:53;;;;;;;;;;;20.90;54.70;;;;;;1561117;74;718;-69
2023/09/28 10:02:55;;;;;;;;;;;20.90;54.70;;;;;;1559857;74;748;-69
2023/09/28 10:04:56;;;;;;;;;;;20.90;54.80;;;;;;1566895;74;710;-69
2023/09/28 10:07:00;;;;;;;;;;;21.00;54.70;;;;;;1565373;74;1949;-69
2023/09/28 10:09:02;;;;;;;;;;;20.90;54.80;;;;;;1560705;74;1148;-70
2023/09/28 10:11:04;;;;;;;;;;;20.90;54.70;;;;;;1566140;74;742;-69
2023/09/28 10:13:06;;;;;;;;;;;20.90;54.70;;;;;;1561980;74;739;-69
2023/09/28 10:15:08;;;;;;;;;;;20.90;54.70;;;;;;1566927;75;707;-69
2023/09/28 10:17:11;;;;;;;;;;;21.00;54.80;;;;;;1565180;74;702;-69
2023/09/28 10:19:15;;;;;;;;;;;21.00;54.80;;;;;;1566958;74;1409;-70
2023/09/28 10:21:16;;;;;;;;;;;20.90;54.70;;;;;;1560304;74;1669;-69
2023/09/28 10:23:19;;;;;;;;;;;21.00;54.80;;;;;;1565873;74;613;-69
2023/09/28 10:25:21;;;;;;;;;;;21.00;54.80;;;;;;1529470;76;1164;-69
2023/09/28 10:27:23;;;;;;;;;;;21.00;54.80;;;;;;1530979;76;1944;-69
2023/09/28 10:29:32;;;;;;;;;;;20.90;54.70;;;;;;1537820;76;1148;-69
2023/09/28 10:31:35;;;;;;;;;;;21.00;54.80;;;;;;1529627;76;729;-69
2023/09/28 10:33:56;;;;;;;;;;;20.90;54.70;;;;;;1537223;76;1050;-69
2023/09/28 10:36:08;;;;;;;;;;;20.90;54.70;;;;;;1498580;77;726;-69
2023/09/28 10:38:21;;;;;;;;;;;20.90;54.70;;;;;;1510507;76;1054;-70
2023/09/28 10:40:24;;;;;;;;;;;20.90;54.70;;;;;;1511424;77;748;-69
2023/09/28 10:42:28;;;;;;;;;;;20.90;54.60;;;;;;1536420;76;752;-69
2023/09/28 10:44:30;;;;;;;;;;;21.00;54.60;;;;;;1502094;77;1520;-69
2023/09/28 10:46:32;;;;;;;;;;;21.00;54.50;;;;;;1489440;78;1058;-69
2023/09/28 10:48:41;;;;;;;;;;;21.00;54.60;;;;;;1533113;76;1928;-69
2023/09/28 10:50:45;;;;;;;;;;;21.00;54.60;;;;;;1506573;77;723;-69
2023/09/28 10:52:47;;;;;;;;;;;21.00;54.70;;;;;;1492019;77;1365;-69
2023/09/28 10:54:49;;;;;;;;;;;20.90;54.70;;;;;;1514293;77;800;-69
2023/09/28 10:56:51;;;;;;;;;;;21.00;54.70;;;;;;1493582;77;704;-70
2023/09/28 10:58:54;;;;;;;;;;;21.00;54.70;;;;;;1532641;76;1206;-69
2023/09/28 11:00:57;;;;;;;;;;;21.00;54.80;;;;;;1491257;77;1217;-69
2023/09/28 11:02:59;;;;;;;;;;;21.00;54.80;;;;;;1518384;77;732;-69
2023/09/28 11:05:01;;;;;;;;;;;21.00;54.70;;;;;;1518416;77;714;-69
2023/09/28 11:07:03;;;;;;;;;;;21.00;54.80;;;;;;1521705;76;742;-69
2023/09/28 11:09:08;;;;;;;;;;;21.00;54.80;;;;;;1531245;76;1920;-69
2023/09/28 11:11:09;;;;;;;;;;;21.00;54.80;;;;;;1535772;76;1543;-69
2023/09/28 11:13:11;;;;;;;;;;;21.00;54.80;;;;;;1531957;76;718;-69
2023/09/28 11:15:14;;;;;;;;;;;21.00;54.80;;;;;;1531512;76;1509;-68
2023/09/28 11:17:16;;;;;;;;;;;21.00;54.80;;;;;;1517666;78;769;-70
2023/09/28 11:19:23;;;;;;;;;;;21.00;54.80;;;;;;1529272;76;1151;-70
2023/09/28 11:21:26;;;;;;;;;;;21.00;54.70;;;;;;1532495;76;529;-68
2023/09/28 11:23:28;;;;;;;;;;;21.00;54.70;;;;;;1536611;76;752;-69
2023/09/28 11:25:30;;;;;;;;;;;21.00;54.80;;;;;;1534935;76;798;-68
2023/09/28 11:27:32;;;;;;;;;;;21.00;54.80;;;;;;1531094;76;1932;-67
2023/09/28 11:29:34;;;;;;;;;;;21.00;54.80;;;;;;1536029;76;1127;-69
2023/09/28 11:31:37;;;;;;;;;;;21.00;55.00;;;;;;1517276;77;766;-69
2023/09/28 11:33:39;;;;;;;;;;;21.00;54.90;;;;;;1506147;77;698;-69
2023/09/28 11:35:43;;;;;;;;;;;21.00;55.00;;;;;;1535325;76;764;-68
2023/09/28 11:37:44;;;;;;;;;;;21.00;54.90;;;;;;1534190;76;735;-69
2023/09/28 11:39:47;;;;;;;;;;;21.00;54.90;;;;;;1498804;77;1129;-69
2023/09/28 11:41:59;;;;;;;;;;;21.00;54.90;;;;;;1502996;77;741;-69
2023/09/28 11:44:00;;;;;;;;;;;21.00;54.80;;;;;;1527406;76;1109;-69
2023/09/28 11:46:03;;;;;;;;;;;21.00;54.80;;;;;;1501304;77;679;-69
2023/09/28 11:48:11;;;;;;;;;;;21.00;54.80;;;;;;1542060;76;1916;-70
2023/09/28 11:50:13;;;;;;;;;;;21.00;54.80;;;;;;1507084;77;1122;-69
2023/09/28 11:52:15;;;;;;;;;;;21.00;54.70;;;;;;1501328;77;718;-69
2023/09/28 11:54:17;;;;;;;;;;;21.00;54.70;;;;;;1533407;76;791;-69
2023/09/28 11:56:19;;;;;;;;;;;21.00;54.60;;;;;;1516996;78;728;-70
2023/09/28 11:58:21;;;;;;;;;;;21.00;54.60;;;;;;1562597;74;1113;-69
2023/09/28 12:00:24;;;;;;;;;;;21.00;54.60;;;;;;1560502;74;800;-68
2023/09/28 12:02:26;;;;;;;;;;;21.00;54.60;;;;;;1565630;74;806;-69
2023/09/28 12:04:28;;;;;;;;;;;21.00;54.70;;;;;;1569285;74;689;-69
2023/09/28 12:06:31;;;;;;;;;;;21.00;54.70;;;;;;1561472;74;745;-68
2023/09/28 12:08:33;;;;;;;;;;;21.00;54.70;;;;;;1571884;74;1942;-69
2023/09/28 12:10:37;;;;;;;;;;;21.00;54.70;;;;;;1569360;74;1581;-69